RPWC/CBO METAR and TAF weather

Enter ICAO airport designator
Station Type Date Time Source
RPWC METAR 2009/11/27 16:00 UTC NOAA

RPWC 271600Z 32004G19KT 300V360 7000 FEW042 BKN100 25/22 Q1012 A2989 NOSIG


Station Type Date Time Source
RPWC Decoded METAR 2009/11/27 16:00 UTC NOAA

Cotobato, Philippines (RPWC) 07-10N 124-13E 62M
Nov 27, 2009 - 11:00 AM EST / 2009.11.27 1600 UTC
Wind: from the NW (320 degrees) at 5 MPH (4 KT) gusting to 22 MPH (19 KT) (direction variable):0
Visibility: 4 mile(s):0
Sky conditions: mostly cloudy
Temperature: 77 F (25 C)
Dew Point: 71 F (22 C)
Relative Humidity: 83%
Pressure (altimeter): 29.89 in. Hg (1012 hPa)
ob: RPWC 271600Z 32004G19KT 300V360 7000 FEW042 BKN100 25/22 Q1012 A2989 NOSIG
cycle: 16

Station Type Date Time Source
RPWC TAF UTC NOAA

Error!


Example: see airport list